sensor_id;sensor_type;location;lat;lon;timestamp;P1;durP1;ratioP1;P2;durP2;ratioP2
11620;SDS011;5866;49.094;11.900;2022-12-15T00:01:58;45.63;;;41.03;;
11620;SDS011;5866;49.094;11.900;2022-12-15T00:04:44;38.83;;;26.70;;
11620;SDS011;5866;49.094;11.900;2022-12-15T00:07:30;35.97;;;29.87;;
11620;SDS011;5866;49.094;11.900;2022-12-15T00:10:15;31.23;;;22.47;;
11620;SDS011;5866;49.094;11.900;2022-12-15T00:13:01;33.73;;;27.13;;
11620;SDS011;5866;49.094;11.900;2022-12-15T00:15:47;45.83;;;41.20;;
11620;SDS011;5866;49.094;11.900;2022-12-15T00:18:34;50.40;;;45.27;;
11620;SDS011;5866;49.094;11.900;2022-12-15T00:21:19;51.67;;;46.30;;
11620;SDS011;5866;49.094;11.900;2022-12-15T00:24:04;55.33;;;50.03;;
11620;SDS011;5866;49.094;11.900;2022-12-15T00:26:50;53.10;;;47.80;;
11620;SDS011;5866;49.094;11.900;2022-12-15T00:29:35;56.87;;;51.37;;
11620;SDS011;5866;49.094;11.900;2022-12-15T00:32:21;49.13;;;43.97;;
11620;SDS011;5866;49.094;11.900;2022-12-15T00:35:07;56.33;;;50.97;;
11620;SDS011;5866;49.094;11.900;2022-12-15T00:37:52;51.23;;;46.00;;
11620;SDS011;5866;49.094;11.900;2022-12-15T00:40:38;49.47;;;44.30;;
11620;SDS011;5866;49.094;11.900;2022-12-15T00:43:06;51.40;;;45.20;;
11620;SDS011;5866;49.094;11.900;2022-12-15T00:45:37;54.50;;;49.20;;
11620;SDS011;5866;49.094;11.900;2022-12-15T00:48:22;52.50;;;47.13;;
11620;SDS011;5866;49.094;11.900;2022-12-15T00:50:51;54.97;;;49.77;;
11620;SDS011;5866;49.094;11.900;2022-12-15T00:53:18;47.97;;;43.30;;
11620;SDS011;5866;49.094;11.900;2022-12-15T00:56:03;45.83;;;40.73;;
11620;SDS011;5866;49.094;11.900;2022-12-15T00:58:49;44.93;;;36.03;;
11620;SDS011;5866;49.094;11.900;2022-12-15T01:01:34;38.53;;;29.83;;
11620;SDS011;5866;49.094;11.900;2022-12-15T01:04:19;40.63;;;28.97;;
11620;SDS011;5866;49.094;11.900;2022-12-15T01:07:06;42.00;;;35.30;;
11620;SDS011;5866;49.094;11.900;2022-12-15T01:09:51;47.83;;;42.80;;
11620;SDS011;5866;49.094;11.900;2022-12-15T01:12:36;47.20;;;42.03;;
11620;SDS011;5866;49.094;11.900;2022-12-15T01:15:22;45.93;;;41.07;;
11620;SDS011;5866;49.094;11.900;2022-12-15T01:18:07;44.67;;;39.83;;
11620;SDS011;5866;49.094;11.900;2022-12-15T01:20:55;44.73;;;39.33;;
11620;SDS011;5866;49.094;11.900;2022-12-15T01:23:25;41.70;;;36.17;;
11620;SDS011;5866;49.094;11.900;2022-12-15T01:25:54;45.17;;;40.53;;
11620;SDS011;5866;49.094;11.900;2022-12-15T01:28:22;44.57;;;37.97;;
11620;SDS011;5866;49.094;11.900;2022-12-15T01:30:50;43.23;;;36.53;;
11620;SDS011;5866;49.094;11.900;2022-12-15T01:33:18;45.83;;;36.17;;
11620;SDS011;5866;49.094;11.900;2022-12-15T01:35:53;50.10;;;41.73;;
11620;SDS011;5866;49.094;11.900;2022-12-15T01:38:22;45.47;;;40.37;;
11620;SDS011;5866;49.094;11.900;2022-12-15T01:40:52;42.57;;;37.83;;
11620;SDS011;5866;49.094;11.900;2022-12-15T01:43:21;50.40;;;45.33;;
11620;SDS011;5866;49.094;11.900;2022-12-15T01:45:52;47.03;;;37.10;;
11620;SDS011;5866;49.094;11.900;2022-12-15T01:48:33;56.83;;;50.83;;
11620;SDS011;5866;49.094;11.900;2022-12-15T01:51:07;56.93;;;51.20;;
11620;SDS011;5866;49.094;11.900;2022-12-15T01:53:42;67.60;;;61.40;;
11620;SDS011;5866;49.094;11.900;2022-12-15T01:56:17;60.10;;;54.67;;
11620;SDS011;5866;49.094;11.900;2022-12-15T01:58:46;65.23;;;58.83;;
11620;SDS011;5866;49.094;11.900;2022-12-15T02:01:15;58.57;;;53.00;;
11620;SDS011;5866;49.094;11.900;2022-12-15T02:03:43;58.70;;;52.90;;
11620;SDS011;5866;49.094;11.900;2022-12-15T02:06:13;57.60;;;51.80;;
11620;SDS011;5866;49.094;11.900;2022-12-15T02:08:41;63.43;;;56.90;;
11620;SDS011;5866;49.094;11.900;2022-12-15T02:11:28;52.70;;;46.70;;
11620;SDS011;5866;49.094;11.900;2022-12-15T02:14:13;61.80;;;55.93;;
11620;SDS011;5866;49.094;11.900;2022-12-15T02:16:54;58.67;;;52.70;;
11620;SDS011;5866;49.094;11.900;2022-12-15T02:19:36;54.30;;;47.57;;
11620;SDS011;5866;49.094;11.900;2022-12-15T02:22:26;57.13;;;51.07;;
11620;SDS011;5866;49.094;11.900;2022-12-15T02:25:18;50.67;;;44.30;;
11620;SDS011;5866;49.094;11.900;2022-12-15T02:28:01;55.43;;;48.87;;
11620;SDS011;5866;49.094;11.900;2022-12-15T02:30:41;51.00;;;42.97;;
11620;SDS011;5866;49.094;11.900;2022-12-15T02:33:36;44.63;;;34.10;;
11620;SDS011;5866;49.094;11.900;2022-12-15T02:36:12;48.73;;;43.43;;
11620;SDS011;5866;49.094;11.900;2022-12-15T02:38:44;51.03;;;45.27;;
11620;SDS011;5866;49.094;11.900;2022-12-15T02:41:29;50.30;;;44.83;;
11620;SDS011;5866;49.094;11.900;2022-12-15T02:44:00;60.83;;;55.00;;
11620;SDS011;5866;49.094;11.900;2022-12-15T02:46:33;55.53;;;49.93;;
11620;SDS011;5866;49.094;11.900;2022-12-15T02:49:10;59.43;;;53.30;;
11620;SDS011;5866;49.094;11.900;2022-12-15T02:51:47;62.57;;;56.37;;
11620;SDS011;5866;49.094;11.900;2022-12-15T02:54:34;61.47;;;54.87;;
11620;SDS011;5866;49.094;11.900;2022-12-15T02:57:14;61.80;;;55.70;;
11620;SDS011;5866;49.094;11.900;2022-12-15T02:59:49;64.20;;;57.77;;
11620;SDS011;5866;49.094;11.900;2022-12-15T03:02:23;57.53;;;50.87;;
11620;SDS011;5866;49.094;11.900;2022-12-15T03:04:54;55.03;;;46.40;;
11620;SDS011;5866;49.094;11.900;2022-12-15T03:07:23;53.17;;;47.20;;
11620;SDS011;5866;49.094;11.900;2022-12-15T03:09:53;48.77;;;41.17;;
11620;SDS011;5866;49.094;11.900;2022-12-15T03:12:22;57.37;;;51.43;;
11620;SDS011;5866;49.094;11.900;2022-12-15T03:14:49;57.37;;;51.40;;
11620;SDS011;5866;49.094;11.900;2022-12-15T03:17:17;58.53;;;52.63;;
11620;SDS011;5866;49.094;11.900;2022-12-15T03:19:46;56.37;;;50.13;;
11620;SDS011;5866;49.094;11.900;2022-12-15T03:22:15;55.13;;;48.90;;
11620;SDS011;5866;49.094;11.900;2022-12-15T03:24:42;55.70;;;49.90;;
11620;SDS011;5866;49.094;11.900;2022-12-15T03:27:10;59.03;;;52.97;;
11620;SDS011;5866;49.094;11.900;2022-12-15T03:29:38;58.57;;;52.57;;
11620;SDS011;5866;49.094;11.900;2022-12-15T03:32:05;58.23;;;52.20;;
11620;SDS011;5866;49.094;11.900;2022-12-15T03:34:33;58.97;;;50.97;;
11620;SDS011;5866;49.094;11.900;2022-12-15T03:37:02;57.03;;;50.97;;
11620;SDS011;5866;49.094;11.900;2022-12-15T03:39:30;60.90;;;54.60;;
11620;SDS011;5866;49.094;11.900;2022-12-15T03:41:57;64.10;;;57.33;;
11620;SDS011;5866;49.094;11.900;2022-12-15T03:44:25;66.60;;;56.40;;
11620;SDS011;5866;49.094;11.900;2022-12-15T03:46:52;56.00;;;49.90;;
11620;SDS011;5866;49.094;11.900;2022-12-15T03:49:28;52.67;;;37.47;;
11620;SDS011;5866;49.094;11.900;2022-12-15T03:51:55;51.57;;;37.03;;
11620;SDS011;5866;49.094;11.900;2022-12-15T03:54:24;54.60;;;42.73;;
11620;SDS011;5866;49.094;11.900;2022-12-15T03:56:52;47.97;;;32.67;;
11620;SDS011;5866;49.094;11.900;2022-12-15T03:59:19;43.83;;;28.37;;
11620;SDS011;5866;49.094;11.900;2022-12-15T04:01:47;40.47;;;28.57;;
11620;SDS011;5866;49.094;11.900;2022-12-15T04:04:15;41.97;;;29.17;;
11620;SDS011;5866;49.094;11.900;2022-12-15T04:06:42;43.60;;;34.47;;
11620;SDS011;5866;49.094;11.900;2022-12-15T04:09:10;40.20;;;25.43;;
11620;SDS011;5866;49.094;11.900;2022-12-15T04:11:39;45.60;;;29.60;;
11620;SDS011;5866;49.094;11.900;2022-12-15T04:14:07;43.63;;;28.03;;
11620;SDS011;5866;49.094;11.900;2022-12-15T04:16:35;42.37;;;27.30;;
11620;SDS011;5866;49.094;11.900;2022-12-15T04:19:02;42.77;;;30.40;;
11620;SDS011;5866;49.094;11.900;2022-12-15T04:21:48;42.27;;;29.97;;
11620;SDS011;5866;49.094;11.900;2022-12-15T04:24:16;49.57;;;35.27;;
11620;SDS011;5866;49.094;11.900;2022-12-15T04:27:02;43.23;;;30.00;;
11620;SDS011;5866;49.094;11.900;2022-12-15T04:29:47;44.87;;;27.87;;
11620;SDS011;5866;49.094;11.900;2022-12-15T04:32:33;40.67;;;25.27;;
11620;SDS011;5866;49.094;11.900;2022-12-15T04:35:18;36.63;;;23.37;;
11620;SDS011;5866;49.094;11.900;2022-12-15T04:38:03;41.70;;;25.80;;
11620;SDS011;5866;49.094;11.900;2022-12-15T04:40:49;41.97;;;30.67;;
11620;SDS011;5866;49.094;11.900;2022-12-15T04:43:35;40.60;;;25.37;;
11620;SDS011;5866;49.094;11.900;2022-12-15T04:46:21;43.27;;;25.80;;
11620;SDS011;5866;49.094;11.900;2022-12-15T04:49:06;43.17;;;30.33;;
11620;SDS011;5866;49.094;11.900;2022-12-15T04:51:51;46.83;;;31.53;;
11620;SDS011;5866;49.094;11.900;2022-12-15T04:54:36;44.53;;;31.63;;
11620;SDS011;5866;49.094;11.900;2022-12-15T04:57:22;45.90;;;31.90;;
11620;SDS011;5866;49.094;11.900;2022-12-15T05:00:09;46.40;;;31.40;;
11620;SDS011;5866;49.094;11.900;2022-12-15T05:02:55;44.70;;;31.23;;
11620;SDS011;5866;49.094;11.900;2022-12-15T05:05:56;40.80;;;28.23;;
11620;SDS011;5866;49.094;11.900;2022-12-15T05:08:41;44.67;;;32.43;;
11620;SDS011;5866;49.094;11.900;2022-12-15T05:11:27;43.93;;;30.47;;
11620;SDS011;5866;49.094;11.900;2022-12-15T05:14:12;47.97;;;34.27;;
11620;SDS011;5866;49.094;11.900;2022-12-15T05:16:59;64.87;;;41.07;;
11620;SDS011;5866;49.094;11.900;2022-12-15T05:19:44;55.00;;;35.97;;
11620;SDS011;5866;49.094;11.900;2022-12-15T05:22:29;46.93;;;32.10;;
11620;SDS011;5866;49.094;11.900;2022-12-15T05:25:15;66.63;;;40.90;;
11620;SDS011;5866;49.094;11.900;2022-12-15T05:28:00;58.87;;;36.23;;
11620;SDS011;5866;49.094;11.900;2022-12-15T05:30:48;41.63;;;26.10;;
11620;SDS011;5866;49.094;11.900;2022-12-15T05:33:35;42.33;;;24.40;;
11620;SDS011;5866;49.094;11.900;2022-12-15T05:36:03;41.77;;;24.63;;
11620;SDS011;5866;49.094;11.900;2022-12-15T05:38:31;42.13;;;23.93;;
11620;SDS011;5866;49.094;11.900;2022-12-15T05:40:59;46.73;;;26.90;;
11620;SDS011;5866;49.094;11.900;2022-12-15T05:43:26;44.20;;;25.10;;
11620;SDS011;5866;49.094;11.900;2022-12-15T05:46:00;42.87;;;25.53;;
11620;SDS011;5866;49.094;11.900;2022-12-15T05:48:29;61.13;;;34.97;;
11620;SDS011;5866;49.094;11.900;2022-12-15T05:50:59;59.50;;;33.93;;
11620;SDS011;5866;49.094;11.900;2022-12-15T05:53:29;44.83;;;27.37;;
11620;SDS011;5866;49.094;11.900;2022-12-15T05:55:59;48.90;;;27.90;;
11620;SDS011;5866;49.094;11.900;2022-12-15T05:58:27;46.03;;;26.33;;
11620;SDS011;5866;49.094;11.900;2022-12-15T06:01:01;43.13;;;25.23;;
11620;SDS011;5866;49.094;11.900;2022-12-15T06:03:29;41.80;;;25.73;;
11620;SDS011;5866;49.094;11.900;2022-12-15T06:05:59;45.23;;;28.03;;
11620;SDS011;5866;49.094;11.900;2022-12-15T06:08:28;44.60;;;25.10;;
11620;SDS011;5866;49.094;11.900;2022-12-15T06:10:56;46.43;;;27.47;;
11620;SDS011;5866;49.094;11.900;2022-12-15T06:13:24;47.67;;;27.80;;
11620;SDS011;5866;49.094;11.900;2022-12-15T06:15:56;42.50;;;24.57;;
11620;SDS011;5866;49.094;11.900;2022-12-15T06:18:25;45.23;;;26.27;;
11620;SDS011;5866;49.094;11.900;2022-12-15T06:20:58;41.37;;;24.33;;
11620;SDS011;5866;49.094;11.900;2022-12-15T06:23:28;41.53;;;24.40;;
11620;SDS011;5866;49.094;11.900;2022-12-15T06:25:58;44.17;;;25.37;;
11620;SDS011;5866;49.094;11.900;2022-12-15T06:28:27;51.40;;;30.77;;
11620;SDS011;5866;49.094;11.900;2022-12-15T06:30:59;50.13;;;27.90;;
11620;SDS011;5866;49.094;11.900;2022-12-15T06:33:28;42.47;;;24.43;;
11620;SDS011;5866;49.094;11.900;2022-12-15T06:35:59;48.87;;;27.40;;
11620;SDS011;5866;49.094;11.900;2022-12-15T06:38:30;44.23;;;26.10;;
11620;SDS011;5866;49.094;11.900;2022-12-15T06:40:59;47.47;;;27.40;;
11620;SDS011;5866;49.094;11.900;2022-12-15T06:43:28;41.93;;;26.13;;
11620;SDS011;5866;49.094;11.900;2022-12-15T06:45:56;45.97;;;27.03;;
11620;SDS011;5866;49.094;11.900;2022-12-15T06:48:24;41.10;;;24.53;;
11620;SDS011;5866;49.094;11.900;2022-12-15T06:50:52;42.13;;;26.50;;
11620;SDS011;5866;49.094;11.900;2022-12-15T06:53:23;41.47;;;27.37;;
11620;SDS011;5866;49.094;11.900;2022-12-15T06:55:50;44.43;;;27.53;;
11620;SDS011;5866;49.094;11.900;2022-12-15T06:58:18;47.23;;;26.77;;
11620;SDS011;5866;49.094;11.900;2022-12-15T07:00:46;40.40;;;25.60;;
11620;SDS011;5866;49.094;11.900;2022-12-15T07:03:14;41.97;;;25.70;;
11620;SDS011;5866;49.094;11.900;2022-12-15T07:05:44;42.63;;;24.80;;
11620;SDS011;5866;49.094;11.900;2022-12-15T07:08:13;38.03;;;23.53;;
11620;SDS011;5866;49.094;11.900;2022-12-15T07:10:43;40.37;;;24.87;;
11620;SDS011;5866;49.094;11.900;2022-12-15T07:13:11;45.20;;;26.30;;
11620;SDS011;5866;49.094;11.900;2022-12-15T07:15:39;43.43;;;27.03;;
11620;SDS011;5866;49.094;11.900;2022-12-15T07:18:08;40.97;;;25.60;;
11620;SDS011;5866;49.094;11.900;2022-12-15T07:20:36;42.20;;;29.27;;
11620;SDS011;5866;49.094;11.900;2022-12-15T07:23:04;44.30;;;28.30;;
11620;SDS011;5866;49.094;11.900;2022-12-15T07:25:34;41.97;;;25.63;;
11620;SDS011;5866;49.094;11.900;2022-12-15T07:28:03;37.67;;;24.10;;
11620;SDS011;5866;49.094;11.900;2022-12-15T07:30:32;36.80;;;25.50;;
11620;SDS011;5866;49.094;11.900;2022-12-15T07:33:04;38.60;;;25.00;;
11620;SDS011;5866;49.094;11.900;2022-12-15T07:35:32;40.77;;;24.30;;
11620;SDS011;5866;49.094;11.900;2022-12-15T07:37:59;40.43;;;25.53;;
11620;SDS011;5866;49.094;11.900;2022-12-15T07:40:27;39.60;;;24.63;;
11620;SDS011;5866;49.094;11.900;2022-12-15T07:42:54;41.93;;;24.67;;
11620;SDS011;5866;49.094;11.900;2022-12-15T07:45:23;42.10;;;25.27;;
11620;SDS011;5866;49.094;11.900;2022-12-15T07:47:51;43.13;;;28.70;;
11620;SDS011;5866;49.094;11.900;2022-12-15T07:50:18;37.10;;;26.50;;
11620;SDS011;5866;49.094;11.900;2022-12-15T07:52:46;41.40;;;27.23;;
11620;SDS011;5866;49.094;11.900;2022-12-15T07:55:14;40.43;;;26.10;;
11620;SDS011;5866;49.094;11.900;2022-12-15T07:57:42;44.50;;;26.83;;
11620;SDS011;5866;49.094;11.900;2022-12-15T08:00:10;44.83;;;27.17;;
11620;SDS011;5866;49.094;11.900;2022-12-15T08:02:41;42.40;;;28.07;;
11620;SDS011;5866;49.094;11.900;2022-12-15T08:05:09;43.30;;;28.33;;
11620;SDS011;5866;49.094;11.900;2022-12-15T08:07:36;42.17;;;28.73;;
11620;SDS011;5866;49.094;11.900;2022-12-15T08:10:04;39.50;;;25.93;;
11620;SDS011;5866;49.094;11.900;2022-12-15T08:12:32;37.50;;;24.57;;
11620;SDS011;5866;49.094;11.900;2022-12-15T08:15:00;45.07;;;27.70;;
11620;SDS011;5866;49.094;11.900;2022-12-15T08:17:27;38.97;;;27.53;;
11620;SDS011;5866;49.094;11.900;2022-12-15T08:19:56;37.80;;;26.40;;
11620;SDS011;5866;49.094;11.900;2022-12-15T08:22:28;41.03;;;27.83;;
11620;SDS011;5866;49.094;11.900;2022-12-15T08:24:56;36.63;;;25.23;;
11620;SDS011;5866;49.094;11.900;2022-12-15T08:27:23;37.53;;;24.00;;
11620;SDS011;5866;49.094;11.900;2022-12-15T08:29:52;38.80;;;25.77;;
11620;SDS011;5866;49.094;11.900;2022-12-15T08:32:20;38.77;;;24.20;;
11620;SDS011;5866;49.094;11.900;2022-12-15T08:34:48;36.77;;;23.70;;
11620;SDS011;5866;49.094;11.900;2022-12-15T08:37:17;33.57;;;21.10;;
11620;SDS011;5866;49.094;11.900;2022-12-15T08:39:44;34.43;;;20.47;;
11620;SDS011;5866;49.094;11.900;2022-12-15T08:42:13;33.57;;;22.43;;
11620;SDS011;5866;49.094;11.900;2022-12-15T08:44:40;35.40;;;20.90;;
11620;SDS011;5866;49.094;11.900;2022-12-15T08:47:08;35.27;;;21.93;;
11620;SDS011;5866;49.094;11.900;2022-12-15T08:49:35;33.97;;;21.90;;
11620;SDS011;5866;49.094;11.900;2022-12-15T08:52:03;37.83;;;26.00;;
11620;SDS011;5866;49.094;11.900;2022-12-15T08:54:32;32.57;;;20.60;;
11620;SDS011;5866;49.094;11.900;2022-12-15T08:57:00;34.60;;;20.83;;
11620;SDS011;5866;49.094;11.900;2022-12-15T08:59:27;31.13;;;20.00;;
11620;SDS011;5866;49.094;11.900;2022-12-15T09:01:55;31.23;;;20.80;;
11620;SDS011;5866;49.094;11.900;2022-12-15T09:04:22;36.00;;;25.47;;
11620;SDS011;5866;49.094;11.900;2022-12-15T09:06:50;38.37;;;31.00;;
11620;SDS011;5866;49.094;11.900;2022-12-15T09:09:18;40.77;;;31.80;;
11620;SDS011;5866;49.094;11.900;2022-12-15T09:11:48;34.57;;;28.43;;
11620;SDS011;5866;49.094;11.900;2022-12-15T09:14:15;46.30;;;36.10;;
11620;SDS011;5866;49.094;11.900;2022-12-15T09:16:53;39.83;;;34.03;;
11620;SDS011;5866;49.094;11.900;2022-12-15T09:19:21;66.13;;;37.67;;
11620;SDS011;5866;49.094;11.900;2022-12-15T09:21:50;83.70;;;49.53;;
11620;SDS011;5866;49.094;11.900;2022-12-15T09:24:17;175.93;;;83.57;;
11620;SDS011;5866;49.094;11.900;2022-12-15T09:27:00;43.30;;;27.30;;
11620;SDS011;5866;49.094;11.900;2022-12-15T09:29:29;50.53;;;31.03;;
11620;SDS011;5866;49.094;11.900;2022-12-15T09:31:56;38.73;;;27.20;;
11620;SDS011;5866;49.094;11.900;2022-12-15T09:34:24;71.20;;;42.37;;
11620;SDS011;5866;49.094;11.900;2022-12-15T09:36:52;42.57;;;32.20;;
11620;SDS011;5866;49.094;11.900;2022-12-15T09:39:19;29.93;;;19.37;;
11620;SDS011;5866;49.094;11.900;2022-12-15T09:41:48;36.73;;;21.33;;
11620;SDS011;5866;49.094;11.900;2022-12-15T09:44:21;40.43;;;31.67;;
11620;SDS011;5866;49.094;11.900;2022-12-15T09:49:46;35.40;;;29.80;;
11620;SDS011;5866;49.094;11.900;2022-12-15T09:52:20;41.40;;;29.00;;
11620;SDS011;5866;49.094;11.900;2022-12-15T09:54:50;33.20;;;20.90;;
11620;SDS011;5866;49.094;11.900;2022-12-15T09:57:22;34.40;;;26.93;;
11620;SDS011;5866;49.094;11.900;2022-12-15T09:59:56;33.73;;;29.67;;
11620;SDS011;5866;49.094;11.900;2022-12-15T10:02:45;36.83;;;32.37;;
11620;SDS011;5866;49.094;11.900;2022-12-15T10:05:29;37.80;;;33.70;;
11620;SDS011;5866;49.094;11.900;2022-12-15T10:08:24;30.40;;;21.60;;
11620;SDS011;5866;49.094;11.900;2022-12-15T10:10:57;23.20;;;14.00;;
11620;SDS011;5866;49.094;11.900;2022-12-15T10:13:29;25.43;;;17.97;;
11620;SDS011;5866;49.094;11.900;2022-12-15T10:16:06;28.97;;;20.50;;
11620;SDS011;5866;49.094;11.900;2022-12-15T10:18:46;30.80;;;22.87;;
11620;SDS011;5866;49.094;11.900;2022-12-15T10:21:27;36.40;;;26.00;;
11620;SDS011;5866;49.094;11.900;2022-12-15T10:23:58;34.03;;;30.33;;
11620;SDS011;5866;49.094;11.900;2022-12-15T10:26:34;41.73;;;33.80;;
11620;SDS011;5866;49.094;11.900;2022-12-15T10:29:05;33.50;;;30.20;;
11620;SDS011;5866;49.094;11.900;2022-12-15T10:31:51;37.73;;;33.40;;
11620;SDS011;5866;49.094;11.900;2022-12-15T10:34:24;37.23;;;33.33;;
11620;SDS011;5866;49.094;11.900;2022-12-15T10:36:54;37.40;;;32.20;;
11620;SDS011;5866;49.094;11.900;2022-12-15T10:39:34;35.77;;;32.17;;
11620;SDS011;5866;49.094;11.900;2022-12-15T10:42:08;38.37;;;34.20;;
11620;SDS011;5866;49.094;11.900;2022-12-15T10:44:39;42.47;;;34.30;;
11620;SDS011;5866;49.094;11.900;2022-12-15T10:47:10;34.53;;;30.93;;
11620;SDS011;5866;49.094;11.900;2022-12-15T10:49:43;36.27;;;32.43;;
11620;SDS011;5866;49.094;11.900;2022-12-15T10:52:18;36.37;;;32.60;;
11620;SDS011;5866;49.094;11.900;2022-12-15T10:54:50;41.43;;;37.03;;
11620;SDS011;5866;49.094;11.900;2022-12-15T10:57:20;38.03;;;34.00;;
11620;SDS011;5866;49.094;11.900;2022-12-15T10:59:53;35.33;;;31.63;;
11620;SDS011;5866;49.094;11.900;2022-12-15T11:02:27;38.87;;;34.87;;
11620;SDS011;5866;49.094;11.900;2022-12-15T11:05:03;35.37;;;31.47;;
11620;SDS011;5866;49.094;11.900;2022-12-15T11:07:34;25.60;;;23.00;;
11620;SDS011;5866;49.094;11.900;2022-12-15T11:10:11;34.83;;;29.07;;
11620;SDS011;5866;49.094;11.900;2022-12-15T11:12:53;33.20;;;29.70;;
11620;SDS011;5866;49.094;11.900;2022-12-15T11:18:31;38.13;;;34.17;;
11620;SDS011;5866;49.094;11.900;2022-12-15T11:21:06;40.87;;;36.37;;
11620;SDS011;5866;49.094;11.900;2022-12-15T11:23:44;38.27;;;34.27;;
11620;SDS011;5866;49.094;11.900;2022-12-15T11:26:21;36.70;;;31.90;;
11620;SDS011;5866;49.094;11.900;2022-12-15T11:28:57;35.63;;;28.40;;
11620;SDS011;5866;49.094;11.900;2022-12-15T11:31:29;41.63;;;34.90;;
11620;SDS011;5866;49.094;11.900;2022-12-15T11:34:02;40.70;;;36.40;;
11620;SDS011;5866;49.094;11.900;2022-12-15T11:36:41;40.40;;;36.17;;
11620;SDS011;5866;49.094;11.900;2022-12-15T11:39:27;43.20;;;36.53;;
11620;SDS011;5866;49.094;11.900;2022-12-15T11:42:07;35.30;;;30.60;;
11620;SDS011;5866;49.094;11.900;2022-12-15T11:44:44;33.33;;;25.77;;
11620;SDS011;5866;49.094;11.900;2022-12-15T11:47:24;33.40;;;23.13;;
11620;SDS011;5866;49.094;11.900;2022-12-15T11:50:08;37.67;;;27.10;;
11620;SDS011;5866;49.094;11.900;2022-12-15T11:52:53;31.17;;;24.03;;
11620;SDS011;5866;49.094;11.900;2022-12-15T11:55:34;43.17;;;35.50;;
11620;SDS011;5866;49.094;11.900;2022-12-15T12:01:11;40.93;;;34.27;;
11620;SDS011;5866;49.094;11.900;2022-12-15T12:03:53;45.60;;;37.23;;
11620;SDS011;5866;49.094;11.900;2022-12-15T12:06:30;38.93;;;33.27;;
11620;SDS011;5866;49.094;11.900;2022-12-15T12:09:12;35.17;;;31.27;;
11620;SDS011;5866;49.094;11.900;2022-12-15T12:11:52;27.13;;;20.53;;
11620;SDS011;5866;49.094;11.900;2022-12-15T12:14:27;27.77;;;20.10;;
11620;SDS011;5866;49.094;11.900;2022-12-15T12:17:04;29.93;;;18.97;;
11620;SDS011;5866;49.094;11.900;2022-12-15T12:19:36;31.37;;;25.00;;
11620;SDS011;5866;49.094;11.900;2022-12-15T12:22:12;31.87;;;25.80;;
11620;SDS011;5866;49.094;11.900;2022-12-15T12:24:49;34.30;;;29.53;;
11620;SDS011;5866;49.094;11.900;2022-12-15T12:27:23;37.70;;;33.63;;
11620;SDS011;5866;49.094;11.900;2022-12-15T12:29:57;42.63;;;34.93;;
11620;SDS011;5866;49.094;11.900;2022-12-15T12:32:29;40.87;;;32.63;;
11620;SDS011;5866;49.094;11.900;2022-12-15T12:35:06;38.73;;;33.70;;
11620;SDS011;5866;49.094;11.900;2022-12-15T12:38:01;45.33;;;36.07;;
11620;SDS011;5866;49.094;11.900;2022-12-15T12:40:34;41.53;;;33.67;;
11620;SDS011;5866;49.094;11.900;2022-12-15T12:43:15;42.07;;;36.03;;
11620;SDS011;5866;49.094;11.900;2022-12-15T12:45:54;39.97;;;32.67;;
11620;SDS011;5866;49.094;11.900;2022-12-15T12:48:26;38.53;;;33.23;;
11620;SDS011;5866;49.094;11.900;2022-12-15T12:51:07;38.10;;;29.43;;
11620;SDS011;5866;49.094;11.900;2022-12-15T12:53:43;35.33;;;28.67;;
11620;SDS011;5866;49.094;11.900;2022-12-15T12:59:05;31.70;;;23.77;;
11620;SDS011;5866;49.094;11.900;2022-12-15T13:02:38;30.47;;;17.50;;
11620;SDS011;5866;49.094;11.900;2022-12-15T13:05:31;29.03;;;17.80;;
11620;SDS011;5866;49.094;11.900;2022-12-15T13:10:59;32.60;;;25.07;;
11620;SDS011;5866;49.094;11.900;2022-12-15T13:14:11;29.40;;;22.13;;
11620;SDS011;5866;49.094;11.900;2022-12-15T13:16:53;40.37;;;36.37;;
11620;SDS011;5866;49.094;11.900;2022-12-15T13:22:49;30.97;;;19.23;;
11620;SDS011;5866;49.094;11.900;2022-12-15T13:25:32;32.07;;;24.27;;
11620;SDS011;5866;49.094;11.900;2022-12-15T13:28:14;33.43;;;23.07;;
11620;SDS011;5866;49.094;11.900;2022-12-15T13:34:20;32.20;;;18.77;;
11620;SDS011;5866;49.094;11.900;2022-12-15T13:36:59;33.57;;;18.70;;
11620;SDS011;5866;49.094;11.900;2022-12-15T13:42:28;41.23;;;21.73;;
11620;SDS011;5866;49.094;11.900;2022-12-15T13:45:35;29.20;;;21.53;;
11620;SDS011;5866;49.094;11.900;2022-12-15T13:48:19;31.13;;;22.93;;
11620;SDS011;5866;49.094;11.900;2022-12-15T13:50:56;31.63;;;20.60;;
11620;SDS011;5866;49.094;11.900;2022-12-15T13:53:31;31.90;;;19.93;;
11620;SDS011;5866;49.094;11.900;2022-12-15T13:56:13;32.83;;;20.53;;
11620;SDS011;5866;49.094;11.900;2022-12-15T13:58:51;32.13;;;20.60;;
11620;SDS011;5866;49.094;11.900;2022-12-15T14:01:24;32.70;;;21.63;;
11620;SDS011;5866;49.094;11.900;2022-12-15T14:04:02;34.97;;;23.03;;
11620;SDS011;5866;49.094;11.900;2022-12-15T14:06:38;35.73;;;22.53;;
11620;SDS011;5866;49.094;11.900;2022-12-15T14:09:17;35.47;;;24.67;;
11620;SDS011;5866;49.094;11.900;2022-12-15T14:11:48;34.70;;;21.90;;
11620;SDS011;5866;49.094;11.900;2022-12-15T14:14:20;34.20;;;20.93;;
11620;SDS011;5866;49.094;11.900;2022-12-15T14:16:51;34.20;;;21.90;;
11620;SDS011;5866;49.094;11.900;2022-12-15T14:19:21;36.00;;;22.30;;
11620;SDS011;5866;49.094;11.900;2022-12-15T14:21:51;38.60;;;23.00;;
11620;SDS011;5866;49.094;11.900;2022-12-15T14:24:24;33.17;;;21.03;;
11620;SDS011;5866;49.094;11.900;2022-12-15T14:27:04;34.93;;;22.33;;
11620;SDS011;5866;49.094;11.900;2022-12-15T14:29:31;36.70;;;23.23;;
11620;SDS011;5866;49.094;11.900;2022-12-15T14:31:59;35.33;;;23.03;;
11620;SDS011;5866;49.094;11.900;2022-12-15T14:34:29;35.53;;;21.40;;
11620;SDS011;5866;49.094;11.900;2022-12-15T14:37:00;33.30;;;23.40;;
11620;SDS011;5866;49.094;11.900;2022-12-15T14:39:33;37.00;;;24.90;;
11620;SDS011;5866;49.094;11.900;2022-12-15T14:42:03;38.33;;;29.20;;
11620;SDS011;5866;49.094;11.900;2022-12-15T14:44:33;45.80;;;40.80;;
11620;SDS011;5866;49.094;11.900;2022-12-15T14:47:05;43.17;;;37.50;;
11620;SDS011;5866;49.094;11.900;2022-12-15T14:49:43;53.83;;;48.37;;
11620;SDS011;5866;49.094;11.900;2022-12-15T14:52:19;54.40;;;49.10;;
11620;SDS011;5866;49.094;11.900;2022-12-15T14:54:53;53.77;;;48.47;;
11620;SDS011;5866;49.094;11.900;2022-12-15T14:57:24;53.63;;;48.17;;
11620;SDS011;5866;49.094;11.900;2022-12-15T14:59:52;53.10;;;47.67;;
11620;SDS011;5866;49.094;11.900;2022-12-15T15:02:22;41.00;;;29.37;;
11620;SDS011;5866;49.094;11.900;2022-12-15T15:04:56;37.37;;;22.90;;
11620;SDS011;5866;49.094;11.900;2022-12-15T15:07:29;49.83;;;41.03;;
11620;SDS011;5866;49.094;11.900;2022-12-15T15:09:58;41.93;;;29.40;;
11620;SDS011;5866;49.094;11.900;2022-12-15T15:12:32;38.60;;;25.60;;
11620;SDS011;5866;49.094;11.900;2022-12-15T15:15:10;38.83;;;26.20;;
11620;SDS011;5866;49.094;11.900;2022-12-15T15:17:42;39.53;;;25.93;;
11620;SDS011;5866;49.094;11.900;2022-12-15T15:20:16;39.47;;;23.10;;
11620;SDS011;5866;49.094;11.900;2022-12-15T15:23:00;38.60;;;24.10;;
11620;SDS011;5866;49.094;11.900;2022-12-15T15:25:33;41.33;;;24.23;;
11620;SDS011;5866;49.094;11.900;2022-12-15T15:28:13;60.20;;;54.23;;
11620;SDS011;5866;49.094;11.900;2022-12-15T15:30:47;46.53;;;30.13;;